Terminal Aerodrome Forecast
Issued by NWS

Home | Current Version | Previous Version | Text Only | Print | Product List | Glossary On
Versions: 1 2 3 4 5 6 7 8 9 10 11 12 13 14 15 16 17 18 19
000
FTPA31 PHFO 191744
TAFHNY
TAF
PHNY 191744Z 1918/2018 05010KT P6SM FEW025
     FM192000 VRB06KT P6SM BKN025
     FM200200 04010KT P6SM SCT015 BKN025
     FM200800 VRB05KT P6SM SCT015=

USA.gov is the U.S. government's official web portal to all federal, state and local government web resources and services.